Terminal Aerodrome Forecast
Issued by NWS Wilmington, OH

Current Version | Previous Version | Graphics & Text | Print | Product List | Glossary On
Versions: 1 2 3 4 5 6 7 8 9 10 11 12 13 14
954
FTUS41 KILN 251732
TAFILN
TAF
KILN 251732Z 2518/2618 VRB03KT P6SM BKN250
     FM260000 00000KT P6SM SCT250
     FM260900 00000KT 4SM BR FEW250
     FM261000 00000KT 3/4SM BR FEW250
     FM261300 00000KT P6SM FEW250
     FM261700 VRB02KT P6SM FEW040=

USA.gov is the U.S. government's official web portal to all federal, state and local government web resources and services.